createdAt,value
2018-10-11T00:01:32.130Z,20.30
2018-10-11T00:04:00.711Z,20.30
2018-10-11T00:06:29.333Z,20.30
2018-10-11T00:08:57.928Z,20.30
2018-10-11T00:11:26.488Z,20.30
2018-10-11T00:13:55.062Z,20.30
2018-10-11T00:16:23.640Z,20.30
2018-10-11T00:18:52.254Z,20.30
2018-10-11T00:21:20.820Z,20.30
2018-10-11T00:23:49.373Z,20.30
2018-10-11T00:26:17.935Z,20.30
2018-10-11T00:28:46.521Z,20.30
2018-10-11T00:31:15.093Z,20.30
2018-10-11T00:33:43.680Z,20.30
2018-10-11T00:36:12.245Z,20.30
2018-10-11T00:38:40.818Z,20.30
2018-10-11T00:41:09.403Z,20.30
2018-10-11T00:43:37.990Z,20.30
2018-10-11T00:46:12.523Z,20.30
2018-10-11T00:51:37.845Z,20.30
2018-10-11T00:57:04.403Z,20.30
2018-10-11T01:13:40.573Z,20.20
2018-10-11T01:16:09.795Z,20.20
2018-10-11T01:18:38.615Z,20.20
2018-10-11T01:21:07.502Z,20.30
2018-10-11T01:29:17.349Z,20.20
2018-10-11T01:46:04.531Z,20.20
2018-10-11T02:05:56.211Z,20.10
2018-10-11T02:08:24.787Z,20.10
2018-10-11T02:22:30.780Z,20.10
2018-10-11T02:31:03.185Z,20.10
2018-10-11T02:50:40.496Z,20.10
2018-10-11T02:53:09.041Z,20.10
2018-10-11T02:55:37.591Z,20.00
2018-10-11T02:58:17.343Z,20.00
2018-10-11T03:00:45.897Z,20.00
2018-10-11T03:03:15.271Z,20.00
2018-10-11T03:05:45.087Z,20.00
2018-10-11T03:08:16.843Z,20.00
2018-10-11T03:10:46.148Z,20.10
2018-10-11T03:13:15.022Z,20.00
2018-10-11T03:15:44.236Z,20.10
2018-10-11T03:18:13.544Z,20.00
2018-10-11T03:20:43.142Z,20.00
2018-10-11T03:23:14.448Z,20.00
2018-10-11T03:25:44.198Z,20.00
2018-10-11T03:31:03.674Z,20.00
2018-10-11T03:33:42.271Z,20.00
2018-10-11T03:36:12.872Z,20.00
2018-10-11T03:50:28.198Z,20.00
2018-10-11T03:52:57.679Z,20.00
2018-10-11T03:55:26.331Z,20.00
2018-10-11T03:57:54.888Z,20.00
2018-10-11T04:00:23.482Z,20.00
2018-10-11T04:02:52.059Z,20.00
2018-10-11T04:05:20.603Z,20.00
2018-10-11T04:07:49.156Z,20.00
2018-10-11T04:10:17.708Z,20.00
2018-10-11T04:12:46.864Z,20.00
2018-10-11T04:15:15.435Z,20.00
2018-10-11T04:17:43.971Z,20.00
2018-10-11T04:20:12.526Z,20.00
2018-10-11T04:22:41.085Z,20.10
2018-10-11T04:25:09.655Z,20.00
2018-10-11T04:27:38.216Z,20.00
2018-10-11T04:30:06.787Z,20.10
2018-10-11T04:32:41.615Z,20.20
2018-10-11T04:35:11.647Z,20.40
2018-10-11T04:37:40.452Z,20.40
2018-10-11T04:40:12.863Z,20.80
2018-10-11T04:42:42.524Z,21.00
2018-10-11T04:45:13.097Z,20.90
2018-10-11T04:47:42.104Z,21.20
2018-10-11T04:50:10.929Z,21.30
2018-10-11T04:52:39.577Z,21.50
2018-10-11T04:55:08.188Z,21.70
2018-10-11T04:57:36.888Z,21.80
2018-10-11T05:00:07.578Z,22.00
2018-10-11T05:02:36.339Z,22.10
2018-10-11T05:05:05.052Z,22.20
2018-10-11T05:07:33.659Z,22.30
2018-10-11T05:10:02.235Z,22.40
2018-10-11T05:12:30.775Z,22.50
2018-10-11T05:14:59.660Z,22.40
2018-10-11T05:17:28.402Z,22.60
2018-10-11T05:19:56.902Z,22.70
2018-10-11T05:22:25.520Z,22.70
2018-10-11T05:24:54.077Z,22.70
2018-10-11T05:27:22.700Z,22.70
2018-10-11T05:29:51.265Z,22.80
2018-10-11T05:32:19.868Z,22.70
2018-10-11T05:34:48.398Z,22.80
2018-10-11T05:37:16.951Z,22.80
2018-10-11T05:39:45.512Z,22.90
2018-10-11T05:42:14.325Z,22.80
2018-10-11T05:44:43.427Z,22.80
2018-10-11T05:47:12.096Z,22.80
2018-10-11T05:52:31.058Z,22.80
2018-10-11T05:54:59.666Z,22.80
2018-10-11T05:57:28.478Z,22.80
2018-10-11T05:59:57.575Z,22.80
2018-10-11T06:02:29.720Z,22.90
2018-10-11T06:04:58.319Z,22.80
2018-10-11T06:07:29.111Z,22.80
2018-10-11T06:09:57.724Z,22.80
2018-10-11T06:12:26.319Z,22.90
2018-10-11T06:14:54.934Z,22.80
2018-10-11T06:17:23.570Z,22.80
2018-10-11T06:19:52.151Z,22.90
2018-10-11T06:22:20.770Z,22.90
2018-10-11T06:24:49.544Z,22.80
2018-10-11T06:27:18.078Z,22.70
2018-10-11T06:29:46.666Z,22.90
2018-10-11T06:32:15.251Z,22.80
2018-10-11T06:34:43.858Z,22.70
2018-10-11T06:37:12.449Z,22.80
2018-10-11T06:39:41.037Z,22.80
2018-10-11T06:42:10.392Z,22.80
2018-10-11T06:44:39.011Z,22.70
2018-10-11T06:47:07.591Z,22.50
2018-10-11T06:49:36.201Z,22.30
2018-10-11T06:52:04.788Z,22.10
2018-10-11T06:54:33.409Z,22.10
2018-10-11T06:57:02.033Z,22.00
2018-10-11T06:59:30.643Z,21.80
2018-10-11T07:07:40.801Z,21.30
2018-10-11T07:10:09.407Z,21.20
2018-10-11T07:12:38.032Z,21.00
2018-10-11T07:15:06.628Z,20.90
2018-10-11T07:17:35.202Z,20.70
2018-10-11T07:20:04.585Z,20.60
2018-10-11T07:22:33.295Z,20.60
2018-10-11T07:25:01.885Z,20.50
2018-10-11T07:27:30.503Z,20.40
2018-10-11T07:29:59.217Z,20.40
2018-10-11T07:32:28.124Z,20.30
2018-10-11T07:34:56.695Z,20.30
2018-10-11T07:37:25.267Z,20.20
2018-10-11T07:39:53.858Z,20.20
2018-10-11T07:42:22.407Z,20.20
2018-10-11T07:44:50.984Z,20.10
2018-10-11T07:47:19.545Z,20.10
2018-10-11T07:49:48.185Z,20.10
2018-10-11T07:52:16.785Z,20.10
2018-10-11T07:54:45.418Z,20.00
2018-10-11T07:57:13.980Z,20.00
2018-10-11T07:59:42.560Z,20.00
2018-10-11T08:02:11.697Z,20.00
2018-10-11T08:04:40.288Z,20.00
2018-10-11T08:07:09.033Z,20.00
2018-10-11T08:09:37.534Z,20.00
2018-10-11T08:15:22.914Z,19.90
2018-10-11T08:17:51.745Z,19.90
2018-10-11T08:20:20.095Z,19.90
2018-10-11T08:22:48.637Z,19.90
2018-10-11T08:25:17.525Z,19.90
2018-10-11T08:27:45.764Z,19.90
2018-10-11T08:30:14.308Z,19.90
2018-10-11T08:32:43.053Z,19.90
2018-10-11T08:35:11.426Z,19.90
2018-10-11T08:37:40.031Z,19.90
2018-10-11T08:40:08.212Z,19.90
2018-10-11T08:42:36.748Z,19.90
2018-10-11T08:45:05.390Z,19.90
2018-10-11T08:47:33.951Z,19.90
2018-10-11T08:50:02.579Z,19.90
2018-10-11T08:52:31.133Z,19.90
2018-10-11T08:54:59.733Z,19.90
2018-10-11T08:57:28.379Z,19.90
2018-10-11T08:59:56.912Z,19.90
2018-10-11T09:02:25.477Z,19.90
2018-10-11T09:13:34.155Z,19.90
2018-10-11T09:16:02.733Z,20.00
2018-10-11T09:18:32.360Z,19.90
2018-10-11T09:21:01.493Z,20.00
2018-10-11T09:23:30.064Z,20.00
2018-10-11T09:25:58.644Z,19.90
2018-10-11T09:28:27.200Z,19.90
2018-10-11T09:30:55.793Z,19.90
2018-10-11T09:33:24.358Z,19.90
2018-10-11T09:35:52.919Z,19.90
2018-10-11T09:38:21.539Z,19.90
2018-10-11T09:40:50.118Z,19.90
2018-10-11T09:43:18.688Z,19.90
2018-10-11T09:45:47.997Z,19.90
2018-10-11T09:48:16.580Z,19.90
2018-10-11T09:50:45.156Z,19.90
2018-10-11T09:53:13.729Z,19.90
2018-10-11T09:55:42.288Z,19.90
2018-10-11T09:58:10.849Z,19.90
2018-10-11T10:01:46.209Z,19.90
2018-10-11T10:04:15.420Z,19.90
2018-10-11T10:06:43.990Z,19.90
2018-10-11T10:09:12.593Z,19.90
2018-10-11T10:11:41.147Z,19.90
2018-10-11T10:14:09.732Z,19.90
2018-10-11T10:16:38.330Z,19.90
2018-10-11T10:19:07.242Z,19.90
2018-10-11T10:21:36.591Z,19.90
2018-10-11T10:24:05.160Z,19.90
2018-10-11T10:26:33.803Z,20.00
2018-10-11T10:29:02.316Z,20.00
2018-10-11T10:31:30.848Z,19.90
2018-10-11T10:33:59.397Z,19.90
2018-10-11T10:36:27.956Z,19.90
2018-10-11T10:38:56.576Z,20.00
2018-10-11T10:41:25.142Z,19.90
2018-10-11T10:43:53.670Z,20.00
2018-10-11T10:46:22.202Z,20.00
2018-10-11T10:48:50.782Z,19.90
2018-10-11T10:51:19.296Z,19.90
2018-10-11T10:53:47.827Z,19.90
2018-10-11T10:56:16.384Z,19.90
2018-10-11T11:07:17.453Z,20.00
2018-10-11T11:09:46.576Z,20.00
2018-10-11T11:12:15.632Z,19.90
2018-10-11T11:14:44.175Z,20.00
2018-10-11T11:17:12.725Z,20.00
2018-10-11T11:22:38.078Z,20.00
2018-10-11T11:27:58.435Z,20.00
2018-10-11T11:30:29.943Z,20.00
2018-10-11T11:41:32.104Z,20.00
2018-10-11T11:57:56.435Z,20.00
2018-10-11T12:00:32.828Z,20.00
2018-10-11T12:03:01.629Z,20.00
2018-10-11T12:05:30.616Z,20.00
2018-10-11T12:07:59.166Z,20.00
2018-10-11T12:10:28.386Z,20.00
2018-10-11T12:12:58.131Z,20.00
2018-10-11T12:15:27.732Z,20.00
2018-10-11T12:17:57.539Z,20.00
2018-10-11T12:20:27.262Z,20.00
2018-10-11T12:22:56.884Z,20.00
2018-10-11T12:25:25.744Z,20.00
2018-10-11T12:27:54.252Z,20.10
2018-10-11T12:30:22.798Z,20.00
2018-10-11T12:32:51.350Z,20.00
2018-10-11T12:35:21.129Z,20.00
2018-10-11T12:43:34.021Z,20.10
2018-10-11T13:00:17.259Z,20.20
2018-10-11T13:11:19.482Z,20.60
2018-10-11T13:13:51.172Z,20.70
2018-10-11T13:16:16.606Z,20.80
2018-10-11T13:18:45.161Z,20.90
2018-10-11T13:21:13.706Z,20.90
2018-10-11T13:23:42.247Z,21.00
2018-10-11T13:26:31.192Z,21.10
2018-10-11T13:37:37.339Z,21.30
2018-10-11T13:40:09.131Z,21.30
2018-10-11T13:42:37.660Z,21.30
2018-10-11T13:47:57.073Z,21.30
2018-10-11T14:16:18.909Z,21.60
2018-10-11T14:21:37.760Z,21.70
2018-10-11T14:24:06.444Z,21.60
2018-10-11T14:26:34.972Z,21.60
2018-10-11T14:29:03.525Z,21.60
2018-10-11T14:31:32.094Z,21.70
2018-10-11T14:34:00.651Z,21.70
2018-10-11T14:36:29.273Z,21.70
2018-10-11T14:38:57.763Z,21.70
2018-10-11T14:41:26.339Z,21.70
2018-10-11T14:43:54.884Z,21.80
2018-10-11T14:46:23.466Z,21.80
2018-10-11T14:48:52.032Z,21.80
2018-10-11T14:51:20.613Z,21.80
2018-10-11T14:53:52.782Z,21.80
2018-10-11T14:56:17.732Z,21.90
2018-10-11T14:58:46.286Z,21.90
2018-10-11T15:01:14.843Z,21.90
2018-10-11T15:03:43.406Z,21.90
2018-10-11T15:06:11.972Z,21.90
2018-10-11T15:08:40.539Z,21.90
2018-10-11T15:11:09.124Z,21.90
2018-10-11T15:13:37.705Z,21.90
2018-10-11T15:16:06.281Z,21.90
2018-10-11T15:18:34.895Z,21.90
2018-10-11T15:21:03.488Z,21.80
2018-10-11T15:23:32.052Z,21.80
2018-10-11T15:26:00.800Z,21.70
2018-10-11T15:28:30.688Z,21.70
2018-10-11T15:31:00.250Z,21.70
2018-10-11T15:33:29.264Z,21.60
2018-10-11T15:35:59.815Z,21.60
2018-10-11T15:38:28.691Z,21.70
2018-10-11T15:40:58.145Z,21.70
2018-10-11T15:43:27.008Z,21.70
2018-10-11T15:45:55.848Z,21.70
2018-10-11T15:48:27.234Z,21.70
2018-10-11T15:50:57.385Z,21.70
2018-10-11T15:53:26.289Z,21.60
2018-10-11T15:55:55.155Z,21.60
2018-10-11T15:58:23.749Z,21.50
2018-10-11T16:00:52.348Z,21.40
2018-10-11T16:03:20.919Z,21.40
2018-10-11T16:05:49.483Z,21.40
2018-10-11T16:08:18.089Z,21.40
2018-10-11T16:10:46.636Z,21.40
2018-10-11T16:13:15.230Z,21.40
2018-10-11T16:15:43.879Z,21.30
2018-10-11T16:18:12.477Z,21.30
2018-10-11T16:20:41.153Z,21.20
2018-10-11T16:23:09.708Z,21.10
2018-10-11T16:25:38.305Z,21.10
2018-10-11T16:28:06.848Z,21.00
2018-10-11T16:30:35.411Z,21.00
2018-10-11T16:33:03.960Z,21.00
2018-10-11T16:35:32.531Z,21.00
2018-10-11T16:38:01.281Z,21.00
2018-10-11T16:40:29.905Z,20.90
2018-10-11T16:42:58.482Z,20.90
2018-10-11T16:45:27.065Z,20.90
2018-10-11T16:47:56.224Z,20.90
2018-10-11T16:50:24.816Z,20.90
2018-10-11T16:52:53.368Z,20.90
2018-10-11T16:55:21.912Z,20.80
2018-10-11T16:57:50.522Z,20.80
2018-10-11T17:00:19.123Z,20.80
2018-10-11T17:02:48.183Z,20.80
2018-10-11T17:05:17.792Z,20.80
2018-10-11T17:07:47.816Z,20.70
2018-10-11T17:10:17.815Z,20.80
2018-10-11T17:12:47.314Z,20.70
2018-10-11T17:15:17.453Z,20.70
2018-10-11T17:17:46.467Z,20.70
2018-10-11T17:20:15.536Z,20.70
2018-10-11T17:22:44.311Z,20.70
2018-10-11T17:25:12.928Z,20.70
2018-10-11T17:27:41.547Z,20.70
2018-10-11T17:30:10.144Z,20.60
2018-10-11T17:32:38.717Z,20.60
2018-10-11T17:35:07.327Z,20.60
2018-10-11T17:37:35.944Z,20.60
2018-10-11T17:40:04.616Z,20.80
2018-10-11T17:42:33.259Z,20.80
2018-10-11T17:45:01.913Z,20.90
2018-10-11T17:47:30.513Z,21.00
2018-10-11T17:49:59.068Z,21.30
2018-10-11T17:52:27.649Z,21.30
2018-10-11T17:54:57.479Z,21.40
2018-10-11T17:57:26.788Z,21.60
2018-10-11T17:59:55.399Z,21.80
2018-10-11T18:02:23.969Z,22.10
2018-10-11T18:04:53.508Z,22.10
2018-10-11T18:07:22.119Z,22.20
2018-10-11T18:09:50.704Z,22.40
2018-10-11T18:12:19.352Z,22.40
2018-10-11T18:14:47.975Z,22.50
2018-10-11T18:17:16.561Z,22.60
2018-10-11T18:19:45.133Z,22.60
2018-10-11T18:22:13.776Z,22.80
2018-10-11T18:24:42.317Z,23.00
2018-10-11T18:27:10.900Z,23.00
2018-10-11T18:29:39.465Z,23.00
2018-10-11T18:32:08.218Z,23.10
2018-10-11T18:34:36.815Z,23.10
2018-10-11T18:37:05.434Z,23.10
2018-10-11T18:39:34.124Z,23.10
2018-10-11T18:42:02.700Z,23.10
2018-10-11T18:44:31.282Z,23.20
2018-10-11T18:46:59.868Z,23.30
2018-10-11T18:49:28.958Z,23.30
2018-10-11T18:51:57.624Z,23.30
2018-10-11T18:54:26.217Z,23.30
2018-10-11T18:56:54.789Z,23.30
2018-10-11T18:59:23.356Z,23.40
2018-10-11T19:01:51.948Z,23.40
2018-10-11T19:04:20.522Z,23.40
2018-10-11T19:06:49.151Z,23.40
2018-10-11T19:09:17.737Z,23.40
2018-10-11T19:11:46.356Z,23.40
2018-10-11T19:14:14.928Z,23.30
2018-10-11T19:16:43.517Z,23.40
2018-10-11T19:19:12.177Z,23.40
2018-10-11T19:21:47.012Z,23.40
2018-10-11T19:24:15.586Z,23.50
2018-10-11T19:29:34.611Z,23.40
2018-10-11T19:32:03.164Z,23.40
2018-10-11T19:34:31.771Z,23.40
2018-10-11T19:37:00.547Z,23.50
2018-10-11T19:39:29.270Z,23.50
2018-10-11T19:41:57.816Z,23.40
2018-10-11T19:47:16.910Z,23.40
2018-10-11T19:49:45.472Z,23.40
2018-10-11T19:52:14.028Z,23.40
2018-10-11T19:54:42.640Z,23.40
2018-10-11T19:57:11.203Z,23.40
2018-10-11T19:59:39.768Z,23.40
2018-10-11T20:02:08.352Z,23.50
2018-10-11T20:04:52.988Z,23.50
2018-10-11T20:07:38.989Z,23.40
2018-10-11T20:10:07.558Z,23.40
2018-10-11T20:35:27.555Z,23.40
2018-10-11T20:37:56.117Z,23.40
2018-10-11T20:40:24.696Z,23.50
2018-10-11T20:42:53.308Z,23.50
2018-10-11T20:45:22.025Z,23.50
2018-10-11T20:47:50.596Z,23.40
2018-10-11T20:50:19.227Z,23.40
2018-10-11T20:52:47.891Z,23.40
2018-10-11T20:55:16.492Z,23.30
2018-10-11T20:57:45.071Z,23.40
2018-10-11T21:00:13.669Z,23.50
2018-10-11T21:02:44.553Z,23.40
2018-10-11T21:05:13.183Z,23.40
2018-10-11T21:07:41.765Z,23.40
2018-10-11T21:10:10.512Z,23.40
2018-10-11T21:12:39.096Z,23.60
2018-10-11T21:15:07.672Z,23.40
2018-10-11T21:17:36.236Z,23.40
2018-10-11T21:20:04.890Z,23.40
2018-10-11T21:22:33.429Z,23.40
2018-10-11T21:25:02.117Z,23.40
2018-10-11T21:27:30.753Z,23.50
2018-10-11T21:29:59.329Z,23.50
2018-10-11T21:32:27.915Z,23.50
2018-10-11T21:34:56.512Z,23.40
2018-10-11T21:37:25.077Z,23.40
2018-10-11T21:39:53.628Z,23.40
2018-10-11T21:42:22.208Z,23.40
2018-10-11T21:44:50.772Z,23.40
2018-10-11T21:47:19.362Z,23.40
2018-10-11T21:49:47.915Z,23.50
2018-10-11T21:52:16.499Z,23.50
2018-10-11T21:54:45.052Z,23.60
2018-10-11T21:57:13.640Z,23.50
2018-10-11T21:59:42.269Z,23.50
2018-10-11T22:02:10.824Z,23.40
2018-10-11T22:04:39.855Z,23.40
2018-10-11T22:07:08.560Z,23.40
2018-10-11T22:09:37.129Z,23.30
2018-10-11T22:12:05.732Z,23.20
2018-10-11T22:14:34.324Z,23.00
2018-10-11T22:17:02.908Z,22.90
2018-10-11T22:19:31.481Z,22.70
2018-10-11T22:22:00.074Z,22.60
2018-10-11T22:24:28.681Z,22.50
2018-10-11T22:26:57.285Z,22.30
2018-10-11T22:29:25.876Z,22.20
2018-10-11T22:31:54.498Z,22.10
2018-10-11T22:34:23.164Z,21.90
2018-10-11T22:36:51.755Z,21.80
2018-10-11T22:39:20.364Z,21.70
2018-10-11T22:41:48.942Z,21.50
2018-10-11T22:44:17.531Z,21.50
2018-10-11T22:46:46.092Z,21.50
2018-10-11T22:49:14.660Z,21.40
2018-10-11T22:51:43.260Z,21.30
2018-10-11T22:54:11.971Z,21.30
2018-10-11T22:56:40.541Z,21.20
2018-10-11T22:59:09.118Z,21.20
2018-10-11T23:01:37.707Z,21.20
2018-10-11T23:04:06.293Z,21.10
2018-10-11T23:06:34.878Z,21.10
2018-10-11T23:09:03.696Z,21.00
2018-10-11T23:11:32.273Z,21.00
2018-10-11T23:14:00.837Z,21.00
2018-10-11T23:16:29.400Z,20.90
2018-10-11T23:18:57.989Z,20.90
2018-10-11T23:21:27.295Z,20.90
2018-10-11T23:23:56.542Z,20.90
2018-10-11T23:26:25.101Z,20.90
2018-10-11T23:28:53.654Z,20.90
2018-10-11T23:31:22.217Z,20.80
2018-10-11T23:33:50.799Z,20.80
2018-10-11T23:36:19.414Z,20.80
2018-10-11T23:38:47.979Z,20.80
2018-10-11T23:41:16.565Z,20.80
2018-10-11T23:43:45.153Z,20.80
2018-10-11T23:46:13.740Z,20.70
2018-10-11T23:48:42.318Z,20.70
2018-10-11T23:51:11.035Z,20.70
2018-10-11T23:53:39.591Z,20.80
2018-10-11T23:56:08.164Z,20.70
2018-10-11T23:58:36.749Z,20.70
